createdAt,value
2019-04-06T00:00:36.424Z,944.19
2019-04-06T00:01:36.455Z,944.17
2019-04-06T00:02:36.405Z,944.15
2019-04-06T00:03:36.398Z,944.10
2019-04-06T00:04:36.435Z,944.10
2019-04-06T00:05:36.371Z,944.12
2019-04-06T00:06:36.396Z,944.16
2019-04-06T00:07:36.359Z,944.16
2019-04-06T00:08:36.341Z,944.09
2019-04-06T00:09:36.361Z,944.13
2019-04-06T00:10:36.336Z,944.17
2019-04-06T00:11:36.312Z,944.17
2019-04-06T00:12:36.292Z,944.09
2019-04-06T00:13:36.283Z,944.14
2019-04-06T00:14:36.302Z,944.18
2019-04-06T00:15:36.264Z,944.21
2019-04-06T00:16:36.266Z,944.16
2019-04-06T00:17:36.251Z,944.11
2019-04-06T00:18:36.237Z,944.25
2019-04-06T00:19:36.260Z,944.21
2019-04-06T00:20:36.211Z,944.26
2019-04-06T00:21:36.205Z,944.15
2019-04-06T00:22:36.199Z,944.25
2019-04-06T00:23:36.179Z,944.11
2019-04-06T00:24:36.210Z,944.16
2019-04-06T00:25:44.267Z,944.13
2019-04-06T00:26:37.147Z,944.11
2019-04-06T00:27:36.926Z,944.08
2019-04-06T00:28:36.123Z,944.09
2019-04-06T00:29:36.152Z,944.08
2019-04-06T00:30:36.128Z,944.07
2019-04-06T00:31:36.123Z,944.06
2019-04-06T00:32:36.072Z,944.03
2019-04-06T00:33:36.092Z,944.12
2019-04-06T00:34:36.061Z,944.07
2019-04-06T00:35:36.044Z,944.04
2019-04-06T00:36:36.086Z,944.05
2019-04-06T00:37:36.026Z,944.12
2019-04-06T00:38:36.011Z,944.05
2019-04-06T00:39:36.002Z,944.10
2019-04-06T00:40:36.019Z,944.06
2019-04-06T00:41:35.981Z,944.04
2019-04-06T00:42:35.962Z,944.06
2019-04-06T00:43:35.962Z,944.06
2019-04-06T00:44:35.942Z,944.13
2019-04-06T00:45:35.984Z,944.10
2019-04-06T00:46:35.920Z,944.02
2019-04-06T00:47:35.966Z,944.05
2019-04-06T00:48:35.897Z,944.04
2019-04-06T00:49:35.901Z,944.01
2019-04-06T00:50:35.882Z,944.03
2019-04-06T00:51:35.881Z,944.12
2019-04-06T00:52:35.896Z,944.06
2019-04-06T00:53:35.851Z,944.06
2019-04-06T00:54:35.830Z,944.00
2019-04-06T00:55:35.850Z,944.11
2019-04-06T00:56:35.810Z,944.10
2019-04-06T00:57:35.801Z,944.10
2019-04-06T00:58:35.820Z,944.07
2019-04-06T00:59:35.778Z,944.08
2019-04-06T01:00:35.770Z,944.10
2019-04-06T01:01:35.760Z,944.11
2019-04-06T01:02:35.749Z,944.14
2019-04-06T01:03:35.762Z,944.11
2019-04-06T01:04:35.730Z,944.07
2019-04-06T01:05:35.733Z,944.23
2019-04-06T01:06:35.739Z,944.20
2019-04-06T01:07:35.728Z,944.22
2019-04-06T01:08:35.779Z,944.16
2019-04-06T01:09:35.675Z,944.16
2019-04-06T01:10:35.670Z,944.16
2019-04-06T01:11:35.650Z,944.14
2019-04-06T01:12:35.648Z,944.18
2019-04-06T01:13:35.660Z,944.15
2019-04-06T01:14:35.649Z,944.23
2019-04-06T01:15:35.655Z,944.23
2019-04-06T01:16:35.608Z,944.20
2019-04-06T01:17:35.611Z,944.19
2019-04-06T01:18:35.588Z,944.15
2019-04-06T01:19:35.559Z,944.12
2019-04-06T01:20:35.598Z,944.11
2019-04-06T01:21:35.541Z,944.22
2019-04-06T01:22:35.559Z,944.12
2019-04-06T01:23:35.511Z,944.12
2019-04-06T01:24:35.512Z,944.06
2019-04-06T01:25:35.492Z,944.18
2019-04-06T01:26:35.479Z,944.17
2019-04-06T01:27:35.513Z,944.17
2019-04-06T01:28:35.468Z,944.11
2019-04-06T01:29:35.450Z,944.12
2019-04-06T01:30:35.468Z,944.07
2019-04-06T01:31:35.426Z,944.05
2019-04-06T01:32:35.428Z,944.07
2019-04-06T01:33:35.411Z,944.05
2019-04-06T01:34:35.430Z,944.05
2019-04-06T01:35:35.389Z,943.99
2019-04-06T01:36:35.369Z,943.94
2019-04-06T01:37:35.371Z,943.97
2019-04-06T01:38:35.350Z,943.97
2019-04-06T01:39:35.379Z,943.98
2019-04-06T01:40:35.328Z,944.02
2019-04-06T01:41:35.320Z,944.02
2019-04-06T01:42:35.312Z,944.05
2019-04-06T01:43:35.345Z,943.97
2019-04-06T01:44:35.348Z,944.02
2019-04-06T01:45:35.283Z,943.95
2019-04-06T01:46:35.265Z,944.04
2019-04-06T01:47:35.287Z,943.98
2019-04-06T01:48:35.343Z,943.92
2019-04-06T01:49:35.228Z,943.93
2019-04-06T01:50:35.241Z,943.94
2019-04-06T01:51:35.210Z,943.98
2019-04-06T01:52:35.199Z,943.97
2019-04-06T01:53:35.213Z,943.93
2019-04-06T01:54:35.188Z,943.92
2019-04-06T01:55:35.289Z,943.91
2019-04-06T01:56:35.187Z,943.87
2019-04-06T01:57:35.190Z,943.88
2019-04-06T01:58:35.182Z,943.79
2019-04-06T01:59:35.127Z,943.92
2019-04-06T02:00:35.158Z,943.92
2019-04-06T02:01:35.137Z,943.87
2019-04-06T02:02:35.088Z,943.91
2019-04-06T02:03:35.086Z,943.89
2019-04-06T02:04:35.090Z,943.90
2019-04-06T02:05:35.097Z,943.85
2019-04-06T02:06:35.588Z,943.88
2019-04-06T02:07:35.037Z,943.92
2019-04-06T02:08:35.035Z,943.91
2019-04-06T02:09:35.057Z,943.96
2019-04-06T02:10:35.063Z,943.98
2019-04-06T02:11:35.086Z,943.89
2019-04-06T02:12:34.976Z,943.98
2019-04-06T02:13:34.996Z,943.94
2019-04-06T02:14:34.966Z,943.91
2019-04-06T02:15:34.961Z,943.86
2019-04-06T02:16:34.976Z,943.96
2019-04-06T02:17:34.933Z,943.90
2019-04-06T02:18:34.947Z,943.92
2019-04-06T02:19:34.907Z,943.93
2019-04-06T02:20:34.887Z,943.88
2019-04-06T02:21:34.886Z,943.84
2019-04-06T02:22:34.877Z,943.90
2019-04-06T02:23:34.886Z,943.92
2019-04-06T02:24:34.856Z,943.91
2019-04-06T02:25:34.836Z,943.97
2019-04-06T02:26:34.846Z,943.92
2019-04-06T02:27:34.856Z,943.94
2019-04-06T02:28:34.806Z,943.94
2019-04-06T02:29:34.801Z,943.92
2019-04-06T02:30:34.819Z,943.93
2019-04-06T02:31:34.785Z,943.84
2019-04-06T02:32:34.776Z,943.92
2019-04-06T02:33:34.757Z,943.92
2019-04-06T02:34:34.843Z,943.92
2019-04-06T02:35:34.798Z,943.86
2019-04-06T02:36:34.716Z,943.94
2019-04-06T02:37:34.705Z,943.95
2019-04-06T02:38:34.704Z,943.94
2019-04-06T02:39:34.695Z,943.93
2019-04-06T02:40:34.719Z,943.97
2019-04-06T02:41:34.667Z,943.97
2019-04-06T02:42:34.657Z,943.95
2019-04-06T02:43:34.647Z,943.94
2019-04-06T02:44:34.714Z,943.85
2019-04-06T02:45:34.741Z,943.93
2019-04-06T02:46:34.677Z,943.89
2019-04-06T02:47:34.598Z,943.86
2019-04-06T02:48:34.762Z,943.83
2019-04-06T02:49:34.606Z,943.88
2019-04-06T02:50:34.568Z,943.86
2019-04-06T02:51:34.561Z,943.86
2019-04-06T02:52:34.687Z,943.80
2019-04-06T02:53:34.557Z,943.81
2019-04-06T02:54:34.517Z,943.89
2019-04-06T02:55:34.538Z,943.91
2019-04-06T02:56:45.590Z,943.83
2019-04-06T02:57:35.549Z,943.81
2019-04-06T02:58:34.625Z,943.80
2019-04-06T02:59:34.468Z,943.81
2019-04-06T03:00:34.454Z,943.77
2019-04-06T03:01:34.444Z,943.85
2019-04-06T03:02:34.444Z,943.84
2019-04-06T03:03:34.525Z,943.80
2019-04-06T03:04:34.474Z,943.84
2019-04-06T03:05:34.402Z,943.81
2019-04-06T03:06:34.386Z,943.83
2019-04-06T03:07:34.383Z,943.79
2019-04-06T03:08:34.421Z,943.76
2019-04-06T03:09:34.398Z,943.81
2019-04-06T03:10:34.466Z,943.75
2019-04-06T03:11:34.330Z,943.81
2019-04-06T03:12:34.323Z,943.88
2019-04-06T03:13:34.494Z,943.73
2019-04-06T03:14:34.332Z,943.86
2019-04-06T03:15:34.296Z,943.74
2019-04-06T03:16:34.284Z,943.69
2019-04-06T03:17:34.351Z,943.79
2019-04-06T03:18:34.458Z,943.75
2019-04-06T03:19:34.245Z,943.69
2019-04-06T03:20:34.245Z,943.82
2019-04-06T03:21:34.221Z,943.77
2019-04-06T03:22:34.213Z,943.79
2019-04-06T03:23:49.218Z,943.70
2019-04-06T03:24:35.246Z,943.68
2019-04-06T03:25:34.191Z,943.75
2019-04-06T03:26:34.242Z,943.80
2019-04-06T03:27:34.162Z,943.76
2019-04-06T03:28:34.201Z,943.73
2019-04-06T03:29:34.180Z,943.68
2019-04-06T03:30:34.133Z,943.76
2019-04-06T03:31:34.242Z,943.74
2019-04-06T03:32:34.148Z,943.76
2019-04-06T03:33:34.412Z,943.71
2019-04-06T03:34:34.128Z,943.78
2019-04-06T03:35:34.151Z,943.71
2019-04-06T03:36:34.153Z,943.65
2019-04-06T03:37:34.057Z,943.66
2019-04-06T03:38:34.083Z,943.70
2019-04-06T03:39:34.031Z,943.62
2019-04-06T03:40:34.026Z,943.65
2019-04-06T03:41:34.092Z,943.82
2019-04-06T03:42:34.024Z,943.68
2019-04-06T03:43:34.474Z,943.82
2019-04-06T03:44:34.140Z,943.74
2019-04-06T03:45:33.963Z,943.72
2019-04-06T03:46:34.000Z,943.65
2019-04-06T03:47:34.079Z,943.77
2019-04-06T03:48:33.934Z,943.71
2019-04-06T03:49:34.051Z,943.78
2019-04-06T03:50:33.913Z,943.75
2019-04-06T03:51:33.946Z,943.77
2019-04-06T03:52:33.892Z,943.75
2019-04-06T03:53:33.900Z,943.79
2019-04-06T03:54:33.870Z,943.72
2019-04-06T03:55:33.881Z,943.76
2019-04-06T03:56:33.869Z,943.75
2019-04-06T03:57:33.825Z,943.74
2019-04-06T03:58:33.900Z,943.83
2019-04-06T03:59:33.854Z,943.66
2019-04-06T04:00:33.879Z,943.73
2019-04-06T04:01:33.841Z,943.71
2019-04-06T04:02:33.785Z,943.75
2019-04-06T04:03:33.771Z,943.74
2019-04-06T04:04:33.765Z,943.76
2019-04-06T04:05:33.930Z,943.73
2019-04-06T04:06:33.763Z,943.71
2019-04-06T04:07:33.724Z,943.62
2019-04-06T04:08:33.703Z,943.65
2019-04-06T04:09:33.712Z,943.66
2019-04-06T04:10:33.693Z,943.65
2019-04-06T04:11:33.897Z,943.67
2019-04-06T04:12:33.681Z,943.75
2019-04-06T04:13:33.693Z,943.67
2019-04-06T04:14:33.655Z,943.73
2019-04-06T04:15:33.740Z,943.66
2019-04-06T04:16:33.663Z,943.66
2019-04-06T04:17:33.867Z,943.73
2019-04-06T04:18:33.640Z,943.75
2019-04-06T04:19:33.592Z,943.70
2019-04-06T04:20:33.594Z,943.71
2019-04-06T04:21:33.571Z,943.69
2019-04-06T04:22:35.184Z,943.71
2019-04-06T04:23:33.609Z,943.71
2019-04-06T04:24:33.540Z,943.77
2019-04-06T04:25:33.542Z,943.78
2019-04-06T04:26:33.520Z,943.78
2019-04-06T04:27:33.500Z,943.73
2019-04-06T04:28:33.520Z,943.74
2019-04-06T04:29:33.480Z,943.80
2019-04-06T04:30:34.549Z,943.84
2019-04-06T04:31:34.050Z,943.87
2019-04-06T04:32:33.482Z,943.88
2019-04-06T04:33:33.457Z,943.80
2019-04-06T04:34:33.427Z,943.78
2019-04-06T04:35:33.640Z,943.82
2019-04-06T04:36:33.458Z,943.89
2019-04-06T04:37:33.395Z,943.79
2019-04-06T04:38:33.405Z,943.78
2019-04-06T04:39:33.551Z,943.82
2019-04-06T04:40:33.429Z,943.88
2019-04-06T04:41:33.349Z,943.87
2019-04-06T04:42:33.373Z,943.91
2019-04-06T04:43:33.367Z,943.90
2019-04-06T04:44:33.335Z,943.88
2019-04-06T04:45:33.463Z,943.99
2019-04-06T04:46:33.309Z,943.95
2019-04-06T04:47:33.280Z,944.03
2019-04-06T04:48:33.405Z,944.01
2019-04-06T04:49:33.258Z,944.04
2019-04-06T04:50:33.487Z,944.04
2019-04-06T04:51:33.280Z,944.05
2019-04-06T04:52:33.225Z,944.06
2019-04-06T04:53:33.216Z,944.06
2019-04-06T04:54:33.200Z,943.97
2019-04-06T04:55:33.383Z,943.98
2019-04-06T04:56:33.221Z,943.99
2019-04-06T04:57:40.142Z,943.99
2019-04-06T04:58:34.172Z,943.94
2019-04-06T04:59:33.179Z,943.93
2019-04-06T05:00:33.147Z,944.00
2019-04-06T05:01:33.140Z,943.93
2019-04-06T05:02:33.120Z,944.05
2019-04-06T05:03:33.324Z,944.06
2019-04-06T05:04:33.167Z,944.04
2019-04-06T05:05:33.156Z,943.95
2019-04-06T05:06:33.072Z,944.06
2019-04-06T05:07:33.090Z,944.03
2019-04-06T05:08:33.051Z,943.97
2019-04-06T05:09:33.115Z,944.05
2019-04-06T05:10:33.068Z,944.03
2019-04-06T05:11:33.045Z,943.98
2019-04-06T05:12:33.037Z,944.02
2019-04-06T05:13:33.039Z,944.09
2019-04-06T05:14:33.017Z,944.02
2019-04-06T05:15:32.999Z,944.07
2019-04-06T05:16:32.977Z,944.00
2019-04-06T05:17:32.961Z,944.05
2019-04-06T05:18:32.947Z,944.02
2019-04-06T05:19:32.929Z,944.08
2019-04-06T05:20:33.008Z,944.02
2019-04-06T05:21:32.975Z,944.14
2019-04-06T05:22:32.936Z,944.19
2019-04-06T05:23:32.887Z,944.14
2019-04-06T05:24:33.026Z,944.14
2019-04-06T05:25:32.899Z,944.15
2019-04-06T05:26:37.851Z,944.15
2019-04-06T05:27:33.839Z,944.18
2019-04-06T05:28:32.929Z,944.15
2019-04-06T05:29:33.347Z,944.10
2019-04-06T05:30:32.806Z,944.17
2019-04-06T05:31:32.898Z,944.15
2019-04-06T05:32:32.794Z,944.16
2019-04-06T05:33:32.777Z,944.12
2019-04-06T05:34:32.767Z,944.14
2019-04-06T05:35:32.757Z,944.12
2019-04-06T05:36:32.880Z,944.12
2019-04-06T05:37:32.747Z,944.23
2019-04-06T05:38:32.793Z,944.16
2019-04-06T05:39:32.737Z,944.12
2019-04-06T05:40:32.705Z,944.23
2019-04-06T05:41:32.698Z,944.16
2019-04-06T05:42:32.704Z,944.29
2019-04-06T05:43:32.960Z,944.24
2019-04-06T05:44:32.688Z,944.27
2019-04-06T05:45:32.660Z,944.26
2019-04-06T05:46:32.635Z,944.29
2019-04-06T05:47:32.652Z,944.28
2019-04-06T05:48:32.628Z,944.35
2019-04-06T05:49:32.671Z,944.37
2019-04-06T05:50:32.644Z,944.43
2019-04-06T05:51:32.631Z,944.39
2019-04-06T05:52:32.684Z,944.46
2019-04-06T05:53:32.612Z,944.42
2019-04-06T05:54:32.545Z,944.39
2019-04-06T05:55:32.578Z,944.38
2019-04-06T05:56:32.752Z,944.46
2019-04-06T05:57:32.819Z,944.35
2019-04-06T05:58:32.535Z,944.41
2019-04-06T05:59:32.505Z,944.43
2019-04-06T06:00:32.515Z,944.36
2019-04-06T06:01:32.507Z,944.39
2019-04-06T06:02:32.465Z,944.44
2019-04-06T06:03:32.525Z,944.38
2019-04-06T06:04:32.465Z,944.45
2019-04-06T06:05:32.434Z,944.40
2019-04-06T06:06:32.741Z,944.47
2019-04-06T06:07:32.425Z,944.37
2019-04-06T06:08:32.442Z,944.46
2019-04-06T06:09:32.451Z,944.45
2019-04-06T06:10:32.392Z,944.45
2019-04-06T06:11:32.376Z,944.50
2019-04-06T06:12:32.365Z,944.49
2019-04-06T06:13:32.381Z,944.46
2019-04-06T06:14:32.329Z,944.49
2019-04-06T06:15:32.333Z,944.49
2019-04-06T06:16:32.363Z,944.50
2019-04-06T06:17:32.352Z,944.50
2019-04-06T06:18:32.344Z,944.49
2019-04-06T06:19:32.298Z,944.51
2019-04-06T06:20:32.368Z,944.46
2019-04-06T06:21:32.265Z,944.44
2019-04-06T06:22:32.365Z,944.43
2019-04-06T06:23:32.319Z,944.38
2019-04-06T06:24:34.600Z,944.40
2019-04-06T06:25:32.205Z,944.32
2019-04-06T06:26:32.245Z,944.37
2019-04-06T06:27:32.238Z,944.33
2019-04-06T06:28:32.174Z,944.31
2019-04-06T06:29:32.264Z,944.35
2019-04-06T06:30:32.186Z,944.31
2019-04-06T06:31:32.184Z,944.26
2019-04-06T06:32:32.142Z,944.35
2019-04-06T06:33:33.014Z,944.31
2019-04-06T06:34:32.113Z,944.38
2019-04-06T06:35:32.132Z,944.33
2019-04-06T06:36:32.133Z,944.38
2019-04-06T06:37:32.105Z,944.31
2019-04-06T06:38:32.113Z,944.41
2019-04-06T06:39:32.053Z,944.41
2019-04-06T06:40:32.245Z,944.36
2019-04-06T06:41:32.056Z,944.37
2019-04-06T06:42:32.032Z,944.34
2019-04-06T06:43:32.043Z,944.38
2019-04-06T06:44:32.033Z,944.42
2019-04-06T06:45:31.989Z,944.36
2019-04-06T06:46:31.992Z,944.43
2019-04-06T06:47:32.076Z,944.38
2019-04-06T06:48:32.067Z,944.38
2019-04-06T06:49:32.047Z,944.34
2019-04-06T06:50:34.254Z,944.37
2019-04-06T06:51:31.935Z,944.42
2019-04-06T06:52:31.960Z,944.40
2019-04-06T06:53:31.912Z,944.40
2019-04-06T06:54:32.120Z,944.44
2019-04-06T06:55:31.922Z,944.29
2019-04-06T06:56:31.871Z,944.34
2019-04-06T06:57:31.953Z,944.40
2019-04-06T06:58:31.863Z,944.40
2019-04-06T06:59:32.512Z,944.38
2019-04-06T07:00:31.835Z,944.44
2019-04-06T07:01:31.822Z,944.36
2019-04-06T07:02:31.919Z,944.41
2019-04-06T07:03:31.889Z,944.41
2019-04-06T07:04:31.811Z,944.42
2019-04-06T07:05:31.813Z,944.40
2019-04-06T07:06:31.758Z,944.37
2019-04-06T07:07:31.948Z,944.42
2019-04-06T07:08:31.791Z,944.37
2019-04-06T07:09:31.997Z,944.48
2019-04-06T07:10:32.004Z,944.42
2019-04-06T07:11:31.913Z,944.37
2019-04-06T07:12:31.701Z,944.35
2019-04-06T07:13:31.714Z,944.36
2019-04-06T07:14:31.681Z,944.37
2019-04-06T07:15:31.765Z,944.46
2019-04-06T07:16:31.651Z,944.38
2019-04-06T07:17:31.702Z,944.42
2019-04-06T07:18:31.829Z,944.49
2019-04-06T07:19:31.618Z,944.47
2019-04-06T07:20:31.815Z,944.40
2019-04-06T07:21:31.591Z,944.46
2019-04-06T07:22:31.619Z,944.46
2019-04-06T07:23:31.572Z,944.44
2019-04-06T07:24:31.605Z,944.45
2019-04-06T07:25:31.590Z,944.39
2019-04-06T07:26:31.552Z,944.38
2019-04-06T07:27:31.539Z,944.34
2019-04-06T07:28:37.777Z,944.38
2019-04-06T07:29:32.510Z,944.35
2019-04-06T07:30:31.529Z,944.44
2019-04-06T07:31:31.491Z,944.39
2019-04-06T07:32:31.477Z,944.50
2019-04-06T07:33:31.528Z,944.49
2019-04-06T07:34:31.453Z,944.48
2019-04-06T07:35:31.449Z,944.51
2019-04-06T07:36:31.480Z,944.45
2019-04-06T07:37:31.436Z,944.43
2019-04-06T07:38:31.437Z,944.41
2019-04-06T07:39:31.409Z,944.46
2019-04-06T07:40:31.392Z,944.46
2019-04-06T07:41:31.409Z,944.41
2019-04-06T07:42:31.440Z,944.46
2019-04-06T07:43:31.378Z,944.41
2019-04-06T07:44:31.354Z,944.38
2019-04-06T07:45:31.330Z,944.37
2019-04-06T07:46:31.469Z,944.41
2019-04-06T07:47:31.569Z,944.39
2019-04-06T07:48:31.339Z,944.47
2019-04-06T07:49:31.312Z,944.42
2019-04-06T07:50:31.358Z,944.39
2019-04-06T07:51:31.380Z,944.43
2019-04-06T07:52:32.279Z,944.41
2019-04-06T07:53:31.240Z,944.48
2019-04-06T07:54:31.493Z,944.50
2019-04-06T07:55:31.219Z,944.47
2019-04-06T07:56:31.377Z,944.45
2019-04-06T07:57:31.230Z,944.45
2019-04-06T07:58:31.319Z,944.49
2019-04-06T07:59:31.343Z,944.42
2019-04-06T08:00:31.197Z,944.42
2019-04-06T08:01:31.295Z,944.35
2019-04-06T08:02:31.169Z,944.31
2019-04-06T08:03:31.319Z,944.33
2019-04-06T08:04:31.264Z,944.35
2019-04-06T08:05:31.119Z,944.37
2019-04-06T08:06:31.129Z,944.35
2019-04-06T08:07:31.205Z,944.37
2019-04-06T08:08:31.220Z,944.29
2019-04-06T08:09:31.162Z,944.33
2019-04-06T08:10:31.136Z,944.24
2019-04-06T08:11:31.048Z,944.22
2019-04-06T08:12:31.111Z,944.27
2019-04-06T08:13:31.025Z,944.30
2019-04-06T08:14:31.053Z,944.28
2019-04-06T08:15:31.120Z,944.27
2019-04-06T08:16:30.990Z,944.25
2019-04-06T08:17:31.002Z,944.22
2019-04-06T08:18:31.013Z,944.25
2019-04-06T08:19:31.084Z,944.21
2019-04-06T08:20:30.996Z,944.25
2019-04-06T08:21:31.186Z,944.30
2019-04-06T08:22:31.091Z,944.29
2019-04-06T08:23:30.919Z,944.36
2019-04-06T08:24:30.909Z,944.36
2019-04-06T08:25:30.936Z,944.29
2019-04-06T08:26:30.930Z,944.23
2019-04-06T08:27:30.879Z,944.29
2019-04-06T08:28:30.868Z,944.34
2019-04-06T08:29:30.859Z,944.27
2019-04-06T08:30:31.298Z,944.28
2019-04-06T08:31:30.929Z,944.33
2019-04-06T08:32:31.019Z,944.30
2019-04-06T08:33:30.928Z,944.23
2019-04-06T08:34:30.799Z,944.32
2019-04-06T08:35:30.799Z,944.35
2019-04-06T08:36:30.861Z,944.28
2019-04-06T08:37:31.025Z,944.37
2019-04-06T08:38:30.778Z,944.34
2019-04-06T08:39:30.761Z,944.28
2019-04-06T08:40:31.022Z,944.25
2019-04-06T08:41:30.764Z,944.25
2019-04-06T08:42:30.831Z,944.34
2019-04-06T08:43:30.900Z,944.08
2019-04-06T08:44:30.699Z,944.16
2019-04-06T08:45:30.770Z,944.24
2019-04-06T08:46:30.670Z,944.20
2019-04-06T08:47:30.652Z,944.14
2019-04-06T08:48:30.673Z,944.32
2019-04-06T08:49:30.680Z,944.16
2019-04-06T08:50:30.698Z,944.19
2019-04-06T08:51:30.784Z,944.11
2019-04-06T08:52:30.815Z,944.22
2019-04-06T08:53:30.700Z,944.24
2019-04-06T08:54:30.607Z,944.20
2019-04-06T08:55:30.617Z,944.16
2019-04-06T08:56:30.738Z,944.14
2019-04-06T08:57:30.574Z,944.07
2019-04-06T08:58:30.622Z,944.11
2019-04-06T08:59:30.579Z,944.24
2019-04-06T09:00:30.569Z,944.04
2019-04-06T09:01:30.507Z,944.04
2019-04-06T09:02:30.729Z,944.30
2019-04-06T09:03:30.474Z,944.21
2019-04-06T09:04:30.461Z,944.11
2019-04-06T09:05:30.495Z,944.23
2019-04-06T09:06:30.872Z,944.03
2019-04-06T09:07:30.431Z,944.24
2019-04-06T09:08:30.418Z,944.25
2019-04-06T09:09:30.454Z,944.14
2019-04-06T09:10:30.401Z,944.12
2019-04-06T09:11:30.382Z,944.12
2019-04-06T09:12:30.398Z,944.00
2019-04-06T09:13:30.389Z,944.02
2019-04-06T09:14:30.554Z,944.03
2019-04-06T09:15:30.361Z,943.98
2019-04-06T09:16:30.614Z,944.06
2019-04-06T09:17:30.351Z,944.12
2019-04-06T09:18:30.390Z,944.06
2019-04-06T09:19:30.350Z,943.94
2019-04-06T09:20:30.384Z,943.93
2019-04-06T09:21:30.301Z,943.93
2019-04-06T09:22:30.924Z,943.91
2019-04-06T09:23:30.277Z,943.90
2019-04-06T09:24:30.243Z,943.97
2019-04-06T09:25:30.293Z,944.04
2019-04-06T09:26:30.219Z,943.93
2019-04-06T09:27:30.211Z,943.92
2019-04-06T09:28:30.258Z,944.03
2019-04-06T09:29:30.239Z,943.96
2019-04-06T09:30:30.227Z,943.94
2019-04-06T09:31:30.296Z,943.86
2019-04-06T09:32:30.201Z,943.92
2019-04-06T09:33:30.141Z,943.87
2019-04-06T09:34:31.171Z,943.83
2019-04-06T09:35:30.181Z,943.75
2019-04-06T09:36:30.135Z,943.84
2019-04-06T09:37:30.114Z,943.80
2019-04-06T09:38:30.113Z,943.65
2019-04-06T09:39:30.079Z,943.76
2019-04-06T09:40:30.343Z,943.69
2019-04-06T09:41:30.460Z,943.78
2019-04-06T09:42:30.065Z,943.74
2019-04-06T09:43:30.045Z,943.59
2019-04-06T09:44:30.022Z,943.69
2019-04-06T09:45:30.044Z,943.68
2019-04-06T09:46:30.106Z,943.67
2019-04-06T09:47:30.330Z,943.59
2019-04-06T09:48:29.982Z,943.60
2019-04-06T09:49:30.191Z,943.59
2019-04-06T09:50:30.024Z,943.60
2019-04-06T09:51:30.162Z,943.59
2019-04-06T09:52:30.094Z,943.59
2019-04-06T09:53:29.940Z,943.51
2019-04-06T09:54:30.144Z,943.56
2019-04-06T09:55:29.923Z,943.54
2019-04-06T09:56:29.889Z,943.49
2019-04-06T09:57:29.915Z,943.56
2019-04-06T09:58:29.986Z,943.49
2019-04-06T09:59:35.812Z,943.55
2019-04-06T10:00:31.044Z,943.42
2019-04-06T10:01:37.985Z,943.49
2019-04-06T10:02:31.061Z,943.57
2019-04-06T10:03:29.811Z,943.53
2019-04-06T10:04:29.813Z,943.43
2019-04-06T10:05:29.813Z,943.46
2019-04-06T10:06:32.154Z,943.53
2019-04-06T10:07:29.782Z,943.47
2019-04-06T10:08:29.794Z,943.42
2019-04-06T10:09:29.835Z,943.35
2019-04-06T10:10:29.737Z,943.38
2019-04-06T10:11:29.747Z,943.40
2019-04-06T10:12:29.975Z,943.38
2019-04-06T10:13:29.796Z,943.38
2019-04-06T10:14:29.707Z,943.38
2019-04-06T10:15:29.679Z,943.40
2019-04-06T10:16:29.663Z,943.31
2019-04-06T10:17:29.681Z,943.35
2019-04-06T10:18:29.722Z,943.39
2019-04-06T10:19:29.671Z,943.29
2019-04-06T10:20:29.733Z,943.25
2019-04-06T10:21:30.781Z,943.37
2019-04-06T10:22:29.684Z,943.36
2019-04-06T10:23:29.583Z,943.29
2019-04-06T10:24:29.675Z,943.46
2019-04-06T10:25:29.897Z,943.38
2019-04-06T10:26:29.605Z,943.48
2019-04-06T10:27:29.561Z,943.49
2019-04-06T10:28:29.851Z,943.37
2019-04-06T10:29:29.551Z,943.49
2019-04-06T10:30:29.504Z,943.41
2019-04-06T10:31:29.493Z,943.35
2019-04-06T10:32:29.482Z,943.32
2019-04-06T10:33:29.516Z,943.34
2019-04-06T10:34:29.499Z,943.35
2019-04-06T10:35:29.449Z,943.29
2019-04-06T10:36:31.422Z,943.26
2019-04-06T10:37:29.428Z,943.29
2019-04-06T10:38:29.446Z,943.37
2019-04-06T10:39:29.628Z,943.22
2019-04-06T10:40:30.030Z,943.18
2019-04-06T10:41:29.419Z,943.31
2019-04-06T10:42:29.625Z,943.18
2019-04-06T10:43:29.407Z,943.25
2019-04-06T10:44:29.394Z,943.19
2019-04-06T10:45:29.350Z,943.14
2019-04-06T10:46:29.381Z,943.22
2019-04-06T10:47:29.315Z,943.09
2019-04-06T10:48:29.315Z,943.14
2019-04-06T10:49:29.335Z,943.20
2019-04-06T10:50:29.276Z,943.18
2019-04-06T10:51:29.416Z,943.15
2019-04-06T10:52:29.299Z,943.09
2019-04-06T10:53:29.451Z,943.13
2019-04-06T10:54:29.255Z,943.20
2019-04-06T10:55:29.285Z,943.21
2019-04-06T10:56:29.215Z,943.24
2019-04-06T10:57:29.213Z,943.07
2019-04-06T10:58:29.273Z,943.10
2019-04-06T10:59:29.187Z,943.10
2019-04-06T11:00:29.175Z,942.99
2019-04-06T11:01:29.164Z,943.14
2019-04-06T11:02:29.165Z,943.04
2019-04-06T11:03:29.147Z,943.01
2019-04-06T11:04:29.129Z,942.99
2019-04-06T11:05:29.126Z,942.89
2019-04-06T11:06:29.105Z,942.93
2019-04-06T11:07:29.150Z,942.86
2019-04-06T11:08:29.121Z,942.80
2019-04-06T11:09:29.298Z,942.83
2019-04-06T11:10:29.056Z,942.78
2019-04-06T11:11:29.166Z,942.80
2019-04-06T11:12:29.080Z,942.75
2019-04-06T11:13:29.037Z,942.86
2019-04-06T11:14:29.025Z,942.87
2019-04-06T11:15:29.362Z,942.76
2019-04-06T11:16:29.292Z,942.75
2019-04-06T11:17:29.143Z,942.83
2019-04-06T11:18:28.989Z,942.62
2019-04-06T11:19:28.995Z,942.77
2019-04-06T11:20:28.963Z,942.65
2019-04-06T11:21:28.959Z,942.58
2019-04-06T11:22:28.998Z,942.55
2019-04-06T11:23:29.078Z,942.79
2019-04-06T11:24:28.909Z,942.62
2019-04-06T11:25:28.915Z,942.66
2019-04-06T11:26:28.907Z,942.54
2019-04-06T11:27:28.927Z,942.68
2019-04-06T11:28:28.878Z,942.61
2019-04-06T11:29:28.855Z,942.59
2019-04-06T11:30:29.080Z,942.54
2019-04-06T11:31:28.852Z,942.55
2019-04-06T11:32:28.862Z,942.73
2019-04-06T11:33:28.994Z,942.61
2019-04-06T11:34:28.806Z,942.59
2019-04-06T11:35:28.796Z,942.56
2019-04-06T11:36:28.777Z,942.58
2019-04-06T11:37:28.901Z,942.54
2019-04-06T11:38:28.831Z,942.61
2019-04-06T11:39:28.767Z,942.65
2019-04-06T11:40:28.746Z,942.62
2019-04-06T11:41:28.791Z,942.64
2019-04-06T11:42:28.778Z,942.56
2019-04-06T11:43:28.726Z,942.49
2019-04-06T11:44:28.844Z,942.58
2019-04-06T11:45:28.720Z,942.60
2019-04-06T11:46:28.797Z,942.52
2019-04-06T11:47:28.796Z,942.60
2019-04-06T11:48:28.645Z,942.51
2019-04-06T11:49:28.647Z,942.55
2019-04-06T11:50:28.676Z,942.49
2019-04-06T11:51:28.803Z,942.61
2019-04-06T11:52:29.415Z,942.53
2019-04-06T11:53:28.583Z,942.48
2019-04-06T11:54:28.587Z,942.51
2019-04-06T11:55:28.600Z,942.56
2019-04-06T11:56:28.547Z,942.59
2019-04-06T11:57:28.594Z,942.57
2019-04-06T11:58:28.527Z,942.51
2019-04-06T11:59:28.547Z,942.54
2019-04-06T12:00:28.538Z,942.55
2019-04-06T12:01:28.854Z,942.50
2019-04-06T12:02:28.501Z,942.58
2019-04-06T12:03:28.489Z,942.54
2019-04-06T12:04:28.467Z,942.45
2019-04-06T12:05:28.460Z,942.52
2019-04-06T12:06:28.478Z,942.48
2019-04-06T12:07:28.460Z,942.46
2019-04-06T12:08:28.417Z,942.49
2019-04-06T12:09:28.399Z,942.45
2019-04-06T12:10:28.412Z,942.55
2019-04-06T12:11:28.381Z,942.48
2019-04-06T12:12:28.407Z,942.43
2019-04-06T12:13:28.398Z,942.44
2019-04-06T12:14:28.360Z,942.48
2019-04-06T12:15:28.339Z,942.50
2019-04-06T12:16:28.332Z,942.51
2019-04-06T12:17:28.751Z,942.44
2019-04-06T12:18:28.336Z,942.56
2019-04-06T12:19:28.451Z,942.50
2019-04-06T12:20:28.507Z,942.42
2019-04-06T12:21:28.296Z,942.43
2019-04-06T12:22:28.432Z,942.46
2019-04-06T12:23:28.435Z,942.36
2019-04-06T12:24:28.242Z,942.45
2019-04-06T12:25:28.228Z,942.38
2019-04-06T12:26:28.229Z,942.42
2019-04-06T12:27:28.548Z,942.36
2019-04-06T12:28:28.191Z,942.51